createdAt,value
2018-08-24T00:01:38.542Z,82.51
2018-08-24T00:04:07.788Z,81.52
2018-08-24T00:06:38.097Z,81.70
2018-08-24T00:09:14.125Z,82.25
2018-08-24T00:11:42.382Z,82.39
2018-08-24T00:14:12.085Z,82.61
2018-08-24T00:16:42.403Z,82.54
2018-08-24T00:19:12.589Z,81.95
2018-08-24T00:21:41.955Z,81.00
2018-08-24T00:24:10.911Z,81.10
2018-08-24T00:26:39.646Z,81.88
2018-08-24T00:29:09.274Z,81.07
2018-08-24T00:31:39.052Z,81.49
2018-08-24T00:34:07.801Z,81.15
2018-08-24T00:36:36.323Z,80.87
2018-08-24T00:39:08.245Z,80.20
2018-08-24T00:41:36.539Z,80.61
2018-08-24T00:44:04.811Z,80.92
2018-08-24T00:46:33.084Z,81.10
2018-08-24T00:49:01.287Z,80.81
2018-08-24T00:51:29.560Z,80.46
2018-08-24T00:53:58.178Z,80.21
2018-08-24T00:56:27.007Z,79.38
2018-08-24T00:58:55.388Z,79.80
2018-08-24T01:01:23.805Z,77.95
2018-08-24T01:03:52.415Z,78.79
2018-08-24T01:06:23.227Z,79.47
2018-08-24T01:08:51.627Z,79.13
2018-08-24T01:11:24.445Z,79.29
2018-08-24T01:13:53.491Z,79.58
2018-08-24T01:16:27.551Z,79.67
2018-08-24T01:18:56.144Z,79.28
2018-08-24T01:21:24.460Z,78.43
2018-08-24T01:23:53.044Z,78.33
2018-08-24T01:26:21.367Z,77.90
2018-08-24T01:28:50.614Z,77.83
2018-08-24T01:31:19.490Z,76.41
2018-08-24T01:33:47.743Z,76.18
2018-08-24T01:36:16.042Z,76.56
2018-08-24T01:38:44.320Z,75.83
2018-08-24T01:41:12.943Z,75.12
2018-08-24T01:43:41.691Z,74.72
2018-08-24T01:46:12.299Z,74.37
2018-08-24T01:48:41.218Z,74.19
2018-08-24T01:51:09.744Z,74.13
2018-08-24T01:53:38.525Z,73.79
2018-08-24T01:56:07.165Z,74.22
2018-08-24T01:58:35.624Z,73.86
2018-08-24T02:01:04.505Z,73.51
2018-08-24T02:03:33.411Z,73.29
2018-08-24T02:06:06.282Z,73.12
2018-08-24T02:08:35.719Z,72.98
2018-08-24T02:11:09.932Z,72.66
2018-08-24T02:13:44.703Z,72.51
2018-08-24T02:16:13.588Z,73.40
2018-08-24T02:18:47.740Z,73.21
2018-08-24T02:22:24.773Z,72.55
2018-08-24T02:24:52.945Z,73.14
2018-08-24T02:27:21.399Z,72.98
2018-08-24T02:29:54.277Z,72.74
2018-08-24T02:32:23.186Z,73.43
2018-08-24T02:34:51.359Z,73.21
2018-08-24T02:37:19.919Z,73.23
2018-08-24T02:39:48.229Z,73.11
2018-08-24T02:42:17.264Z,73.80
2018-08-24T02:44:45.436Z,73.97
2018-08-24T02:47:13.792Z,73.87
2018-08-24T02:49:42.544Z,73.94
2018-08-24T02:52:10.752Z,74.07
2018-08-24T02:54:39.512Z,74.29
2018-08-24T02:57:07.886Z,74.56
2018-08-24T02:59:36.395Z,74.18
2018-08-24T03:02:05.180Z,74.06
2018-08-24T03:04:33.383Z,73.99
2018-08-24T03:07:02.292Z,74.31
2018-08-24T03:09:30.491Z,74.98
2018-08-24T03:11:58.797Z,74.89
2018-08-24T03:14:27.295Z,74.76
2018-08-24T03:17:02.055Z,75.07
2018-08-24T03:19:30.266Z,74.49
2018-08-24T03:21:58.786Z,74.74
2018-08-24T03:24:27.632Z,74.76
2018-08-24T03:26:56.188Z,74.54
2018-08-24T03:29:24.808Z,74.54
2018-08-24T03:31:53.115Z,74.54
2018-08-24T03:34:21.632Z,74.44
2018-08-24T03:36:49.876Z,75.11
2018-08-24T03:39:18.034Z,75.03
2018-08-24T03:41:46.466Z,74.75
2018-08-24T03:44:15.014Z,75.10
2018-08-24T03:46:43.183Z,75.07
2018-08-24T03:49:11.410Z,75.44
2018-08-24T03:51:40.208Z,75.87
2018-08-24T03:54:14.869Z,76.67
2018-08-24T03:56:43.985Z,76.54
2018-08-24T03:59:12.850Z,76.48
2018-08-24T04:01:41.405Z,75.78
2018-08-24T04:04:10.331Z,76.31
2018-08-24T04:06:38.791Z,76.09
2018-08-24T04:09:07.436Z,76.06
2018-08-24T04:11:36.011Z,75.88
2018-08-24T04:14:04.185Z,76.09
2018-08-24T04:16:38.481Z,76.08
2018-08-24T04:19:12.954Z,76.10
2018-08-24T04:21:48.000Z,76.46
2018-08-24T04:24:19.554Z,76.94
2018-08-24T04:26:59.533Z,76.70
2018-08-24T04:29:32.518Z,76.23
2018-08-24T04:32:04.627Z,75.88
2018-08-24T04:34:35.910Z,76.01
2018-08-24T04:37:06.593Z,76.19
2018-08-24T04:39:41.033Z,76.15
2018-08-24T04:42:10.722Z,76.72
2018-08-24T04:44:38.998Z,76.78
2018-08-24T04:47:09.483Z,76.53
2018-08-24T04:49:39.177Z,77.00
2018-08-24T04:52:10.103Z,76.63
2018-08-24T04:54:39.451Z,76.76
2018-08-24T04:57:11.113Z,76.30
2018-08-24T04:59:39.608Z,76.02
2018-08-24T05:02:08.753Z,75.21
2018-08-24T05:04:37.220Z,75.49
2018-08-24T05:07:05.738Z,74.88
2018-08-24T05:09:34.406Z,74.75
2018-08-24T05:12:02.814Z,74.26
2018-08-24T05:14:31.336Z,74.32
2018-08-24T05:17:00.311Z,74.02
2018-08-24T05:19:28.770Z,74.01
2018-08-24T05:21:57.391Z,73.00
2018-08-24T05:24:26.212Z,73.18
2018-08-24T05:26:55.331Z,72.89
2018-08-24T05:29:23.997Z,72.38
2018-08-24T05:31:52.272Z,72.54
2018-08-24T05:34:20.742Z,72.26
2018-08-24T05:36:49.598Z,71.99
2018-08-24T05:39:17.786Z,72.55
2018-08-24T05:41:46.884Z,72.02
2018-08-24T05:44:15.818Z,70.83
2018-08-24T05:46:44.547Z,70.52
2018-08-24T05:49:13.534Z,70.17
2018-08-24T05:51:43.498Z,70.38
2018-08-24T05:54:13.614Z,69.81
2018-08-24T05:56:43.254Z,69.86
2018-08-24T05:59:11.852Z,70.21
2018-08-24T06:01:40.603Z,70.74
2018-08-24T06:04:09.068Z,70.59
2018-08-24T06:06:39.088Z,69.07
2018-08-24T06:09:13.960Z,69.52
2018-08-24T06:11:42.615Z,69.00
2018-08-24T06:14:12.268Z,69.20
2018-08-24T06:16:45.253Z,68.88
2018-08-24T06:19:32.160Z,68.33
2018-08-24T06:22:00.800Z,68.39
2018-08-24T06:24:29.324Z,68.87
2018-08-24T06:26:57.894Z,68.17
2018-08-24T06:29:26.744Z,68.23
2018-08-24T06:31:55.264Z,68.30
2018-08-24T06:34:23.727Z,67.19
2018-08-24T06:36:52.241Z,66.92
2018-08-24T06:39:20.663Z,66.91
2018-08-24T06:41:49.305Z,66.89
2018-08-24T06:44:17.852Z,66.43
2018-08-24T06:46:47.028Z,65.47
2018-08-24T06:49:15.290Z,64.03
2018-08-24T06:51:43.785Z,63.76
2018-08-24T06:54:12.037Z,63.67
2018-08-24T06:56:40.960Z,62.32
2018-08-24T06:59:10.292Z,63.08
2018-08-24T07:04:07.168Z,64.66
2018-08-24T07:06:35.903Z,64.57
2018-08-24T07:09:06.373Z,64.46
2018-08-24T07:11:35.582Z,64.72
2018-08-24T07:14:04.450Z,64.88
2018-08-24T07:16:33.002Z,65.15
2018-08-24T07:19:01.816Z,65.26
2018-08-24T07:21:30.042Z,64.41
2018-08-24T07:23:58.856Z,65.15
2018-08-24T07:26:27.265Z,64.34
2018-08-24T07:28:55.433Z,64.10
2018-08-24T07:31:24.534Z,64.08
2018-08-24T07:33:53.746Z,63.29
2018-08-24T07:36:22.509Z,63.43
2018-08-24T07:38:50.883Z,63.33
2018-08-24T07:41:19.208Z,63.42
2018-08-24T07:43:47.562Z,62.09
2018-08-24T07:46:15.724Z,62.04
2018-08-24T07:48:44.318Z,61.83
2018-08-24T07:51:12.787Z,62.63
2018-08-24T07:53:40.983Z,62.89
2018-08-24T07:56:09.626Z,63.87
2018-08-24T07:58:38.177Z,63.52
2018-08-24T08:01:06.691Z,62.95
2018-08-24T08:03:34.875Z,63.21
2018-08-24T08:06:03.852Z,62.50
2018-08-24T08:08:32.230Z,62.14
2018-08-24T08:11:00.451Z,62.58
2018-08-24T08:13:28.972Z,62.38
2018-08-24T08:15:57.145Z,61.41
2018-08-24T08:18:25.676Z,63.00
2018-08-24T08:20:53.887Z,63.88
2018-08-24T08:23:22.689Z,63.88
2018-08-24T08:25:51.144Z,63.55
2018-08-24T08:28:19.331Z,63.20
2018-08-24T08:30:48.164Z,62.81
2018-08-24T08:33:16.634Z,61.80
2018-08-24T08:35:45.125Z,61.14
2018-08-24T08:38:13.595Z,60.09
2018-08-24T08:40:43.040Z,58.52
2018-08-24T08:43:11.596Z,57.10
2018-08-24T08:45:39.861Z,56.42
2018-08-24T08:48:08.409Z,54.61
2018-08-24T08:50:36.831Z,55.03
2018-08-24T08:53:05.307Z,54.88
2018-08-24T08:55:33.669Z,55.01
2018-08-24T08:58:02.496Z,57.12
2018-08-24T09:00:31.819Z,57.81
2018-08-24T09:03:00.675Z,57.99
2018-08-24T09:05:28.924Z,58.38
2018-08-24T09:07:57.103Z,59.36
2018-08-24T09:10:25.230Z,59.15
2018-08-24T09:12:53.523Z,58.60
2018-08-24T09:15:22.019Z,58.52
2018-08-24T09:17:56.110Z,57.55
2018-08-24T09:20:29.999Z,54.60
2018-08-24T09:23:03.941Z,52.83
2018-08-24T09:25:38.117Z,51.19
2018-08-24T09:28:12.370Z,52.08
2018-08-24T09:30:47.158Z,51.50
2018-08-24T09:33:15.531Z,52.17
2018-08-24T09:35:44.451Z,53.14
2018-08-24T09:38:13.284Z,53.30
2018-08-24T09:40:47.265Z,52.41
2018-08-24T09:43:21.351Z,52.80
2018-08-24T09:45:50.099Z,53.12
2018-08-24T09:48:24.190Z,55.59
2018-08-24T09:50:58.205Z,58.92
2018-08-24T09:53:32.205Z,60.94
2018-08-24T09:56:00.709Z,62.17
2018-08-24T09:58:29.425Z,65.07
2018-08-24T10:01:03.272Z,66.18
2018-08-24T10:03:37.319Z,65.48
2018-08-24T10:07:14.364Z,65.25
2018-08-24T10:09:42.805Z,63.14
2018-08-24T10:12:11.446Z,60.96
2018-08-24T10:24:18.764Z,58.36
2018-08-24T10:26:47.047Z,55.54
2018-08-24T10:29:16.273Z,54.50
2018-08-24T10:31:44.624Z,53.00
2018-08-24T10:34:13.455Z,52.05
2018-08-24T10:36:41.664Z,53.24
2018-08-24T10:39:11.600Z,53.44
2018-08-24T10:41:40.302Z,52.51
2018-08-24T10:44:08.536Z,50.40
2018-08-24T10:46:36.956Z,49.53
2018-08-24T10:49:05.574Z,49.02
2018-08-24T10:51:33.777Z,51.25
2018-08-24T10:54:02.623Z,59.45
2018-08-24T10:56:31.466Z,63.99
2018-08-24T10:59:00.008Z,66.42
2018-08-24T11:01:28.856Z,68.23
2018-08-24T11:03:57.393Z,74.29
2018-08-24T11:06:25.660Z,79.17
2018-08-24T11:08:53.835Z,83.14
2018-08-24T11:11:22.258Z,84.70
2018-08-24T11:13:50.720Z,87.68
2018-08-24T11:16:19.194Z,88.79
2018-08-24T11:18:47.709Z,88.50
2018-08-24T11:21:15.950Z,88.79
2018-08-24T11:23:44.340Z,88.62
2018-08-24T11:26:12.555Z,87.63
2018-08-24T11:28:41.109Z,87.44
2018-08-24T11:31:09.497Z,83.83
2018-08-24T11:33:37.982Z,85.21
2018-08-24T11:36:07.522Z,83.99
2018-08-24T11:38:36.320Z,82.56
2018-08-24T11:41:05.061Z,82.51
2018-08-24T11:43:33.543Z,80.66
2018-08-24T11:46:01.844Z,81.15
2018-08-24T11:48:30.067Z,80.85
2018-08-24T11:50:59.568Z,78.37
2018-08-24T11:53:28.439Z,77.98
2018-08-24T11:55:56.610Z,78.11
2018-08-24T11:58:25.704Z,76.15
2018-08-24T12:00:53.938Z,77.66
2018-08-24T12:03:22.419Z,75.47
2018-08-24T12:05:50.655Z,72.29
2018-08-24T12:08:18.883Z,70.58
2018-08-24T12:10:47.344Z,68.03
2018-08-24T12:13:16.209Z,65.86
2018-08-24T12:15:45.481Z,65.67
2018-08-24T12:18:14.103Z,69.35
2018-08-24T12:20:42.309Z,69.69
2018-08-24T12:23:11.143Z,71.96
2018-08-24T12:25:39.498Z,73.15
2018-08-24T12:28:14.677Z,73.16
2018-08-24T12:30:43.257Z,71.87
2018-08-24T12:33:11.737Z,70.05
2018-08-24T12:35:39.924Z,68.00
2018-08-24T12:38:08.205Z,67.54
2018-08-24T12:40:36.349Z,67.95
2018-08-24T12:43:04.874Z,65.32
2018-08-24T12:45:33.114Z,68.56
2018-08-24T12:48:01.394Z,68.92
2018-08-24T12:50:29.880Z,68.38
2018-08-24T12:52:58.286Z,67.29
2018-08-24T12:55:27.096Z,68.44
2018-08-24T12:57:56.445Z,69.65
2018-08-24T13:00:24.872Z,70.64
2018-08-24T13:02:53.318Z,72.05
2018-08-24T13:05:21.532Z,70.86
2018-08-24T13:07:50.033Z,71.42
2018-08-24T13:10:18.483Z,70.00
2018-08-24T13:12:46.717Z,69.26
2018-08-24T13:15:15.115Z,68.56
2018-08-24T13:17:43.672Z,69.13
2018-08-24T13:20:11.932Z,68.85
2018-08-24T13:22:40.467Z,69.32
2018-08-24T13:25:08.688Z,68.72
2018-08-24T13:27:36.934Z,68.21
2018-08-24T13:30:05.579Z,69.21
2018-08-24T13:32:33.958Z,69.73
2018-08-24T13:35:02.550Z,69.92
2018-08-24T13:37:30.859Z,70.77
2018-08-24T13:40:02.298Z,68.96
2018-08-24T13:42:30.653Z,67.01
2018-08-24T13:44:59.163Z,65.15
2018-08-24T13:47:27.464Z,62.62
2018-08-24T13:49:56.512Z,60.04
2018-08-24T13:52:24.701Z,58.61
2018-08-24T13:54:53.484Z,58.95
2018-08-24T13:57:21.610Z,57.97
2018-08-24T13:59:50.470Z,58.21
2018-08-24T14:02:18.821Z,61.49
2018-08-24T14:04:47.372Z,58.45
2018-08-24T14:07:15.956Z,59.63
2018-08-24T14:09:44.551Z,57.69
2018-08-24T14:12:13.083Z,51.06
2018-08-24T14:14:42.226Z,47.41
2018-08-24T14:17:10.765Z,43.37
2018-08-24T14:19:39.260Z,43.07
2018-08-24T14:22:07.481Z,45.12
2018-08-24T14:24:36.330Z,46.74
2018-08-24T14:27:04.869Z,49.05
2018-08-24T14:29:33.268Z,51.22
2018-08-24T14:32:01.812Z,53.77
2018-08-24T14:34:31.233Z,54.11
2018-08-24T14:36:59.765Z,54.19
2018-08-24T14:39:28.425Z,54.08
2018-08-24T14:41:57.347Z,54.46
2018-08-24T14:44:26.328Z,54.46
2018-08-24T14:46:55.312Z,55.60
2018-08-24T14:49:24.339Z,54.46
2018-08-24T14:51:53.123Z,55.88
2018-08-24T14:54:21.576Z,56.36
2018-08-24T14:56:49.820Z,57.61
2018-08-24T14:59:18.756Z,57.83
2018-08-24T15:01:47.001Z,56.82
2018-08-24T15:04:15.706Z,56.93
2018-08-24T15:06:44.273Z,57.22
2018-08-24T15:09:13.120Z,57.22
2018-08-24T15:11:41.675Z,56.79
2018-08-24T15:14:10.247Z,56.05
2018-08-24T15:16:38.499Z,56.41
2018-08-24T15:19:07.511Z,56.48
2018-08-24T15:21:35.714Z,57.15
2018-08-24T15:24:03.940Z,57.63
2018-08-24T15:26:32.231Z,58.58
2018-08-24T15:29:00.480Z,56.96
2018-08-24T15:31:29.507Z,54.83
2018-08-24T15:33:57.939Z,52.60
2018-08-24T15:36:26.118Z,54.16
2018-08-24T15:38:54.713Z,53.57
2018-08-24T15:41:23.389Z,54.09
2018-08-24T15:43:51.758Z,55.12
2018-08-24T15:46:20.102Z,56.03
2018-08-24T15:48:48.772Z,56.22
2018-08-24T15:51:16.983Z,56.47
2018-08-24T15:53:45.578Z,56.31
2018-08-24T15:56:15.379Z,56.87
2018-08-24T15:58:44.046Z,57.27
2018-08-24T16:01:12.956Z,56.53
2018-08-24T16:03:41.739Z,56.62
2018-08-24T16:06:10.604Z,57.32
2018-08-24T16:08:39.545Z,57.44
2018-08-24T16:11:09.150Z,57.64
2018-08-24T16:13:37.738Z,60.68
2018-08-24T16:16:07.068Z,59.88
2018-08-24T16:18:35.978Z,61.30
2018-08-24T16:21:04.348Z,60.93
2018-08-24T16:23:33.040Z,60.33
2018-08-24T16:26:01.685Z,58.91
2018-08-24T16:28:30.356Z,58.35
2018-08-24T16:30:59.041Z,59.02
2018-08-24T16:33:28.644Z,60.92
2018-08-24T16:35:57.062Z,61.47
2018-08-24T16:38:25.415Z,62.62
2018-08-24T16:40:54.359Z,62.15
2018-08-24T16:43:23.357Z,63.24
2018-08-24T16:45:52.271Z,62.83
2018-08-24T16:48:21.721Z,63.33
2018-08-24T16:50:50.207Z,63.29
2018-08-24T16:53:19.222Z,62.98
2018-08-24T16:55:48.120Z,62.93
2018-08-24T16:58:16.763Z,63.80
2018-08-24T17:00:44.945Z,64.04
2018-08-24T17:03:13.644Z,63.71
2018-08-24T17:05:41.883Z,64.03
2018-08-24T17:08:10.720Z,64.27
2018-08-24T17:10:39.704Z,64.34
2018-08-24T17:13:07.981Z,63.91
2018-08-24T17:15:36.655Z,64.56
2018-08-24T17:18:05.612Z,64.29
2018-08-24T17:20:33.830Z,63.81
2018-08-24T17:23:02.539Z,64.74
2018-08-24T17:25:30.880Z,63.78
2018-08-24T17:27:59.709Z,64.90
2018-08-24T17:30:27.905Z,64.04
2018-08-24T17:32:57.122Z,64.73
2018-08-24T17:35:26.179Z,65.03
2018-08-24T17:37:54.647Z,65.78
2018-08-24T17:40:24.223Z,65.23
2018-08-24T17:42:53.185Z,65.80
2018-08-24T17:45:21.471Z,66.11
2018-08-24T17:47:50.288Z,65.78
2018-08-24T17:50:20.563Z,65.97
2018-08-24T17:52:48.732Z,66.29
2018-08-24T17:55:17.900Z,66.82
2018-08-24T17:57:46.888Z,65.60
2018-08-24T18:00:15.280Z,66.26
2018-08-24T18:02:44.049Z,65.14
2018-08-24T18:05:12.520Z,65.74
2018-08-24T18:07:41.470Z,65.55
2018-08-24T18:10:10.439Z,66.17
2018-08-24T18:12:39.078Z,65.12
2018-08-24T18:15:09.122Z,65.34
2018-08-24T18:17:37.372Z,65.79
2018-08-24T18:20:06.410Z,66.05
2018-08-24T18:22:38.104Z,65.76
2018-08-24T18:25:07.167Z,65.11
2018-08-24T18:27:35.784Z,65.20
2018-08-24T18:30:06.439Z,65.90
2018-08-24T18:32:35.101Z,64.94
2018-08-24T18:35:04.099Z,65.60
2018-08-24T18:37:32.422Z,65.55
2018-08-24T18:40:00.782Z,65.30
2018-08-24T18:42:29.972Z,65.14
2018-08-24T18:44:58.675Z,65.89
2018-08-24T18:47:27.051Z,65.59
2018-08-24T18:49:55.294Z,65.80
2018-08-24T18:52:23.707Z,66.20
2018-08-24T18:54:52.195Z,66.31
2018-08-24T18:57:21.327Z,65.78
2018-08-24T18:59:50.105Z,65.78
2018-08-24T19:02:18.500Z,65.99
2018-08-24T19:04:46.788Z,65.76
2018-08-24T19:07:15.071Z,66.07
2018-08-24T19:09:43.276Z,65.55
2018-08-24T19:12:17.477Z,66.19
2018-08-24T19:14:46.085Z,66.04
2018-08-24T19:17:20.345Z,66.17
2018-08-24T19:19:54.560Z,65.90
2018-08-24T19:22:22.989Z,65.17
2018-08-24T19:24:51.392Z,65.17
2018-08-24T19:27:20.056Z,65.00
2018-08-24T19:29:55.849Z,64.91
2018-08-24T19:32:25.846Z,65.39
2018-08-24T19:34:56.388Z,64.86
2018-08-24T19:37:25.331Z,65.06
2018-08-24T19:40:01.072Z,64.55
2018-08-24T19:42:29.918Z,64.63
2018-08-24T19:45:00.382Z,64.83
2018-08-24T19:47:34.222Z,64.73
2018-08-24T19:50:02.832Z,64.85
2018-08-24T19:52:31.138Z,64.97
2018-08-24T19:55:00.136Z,64.51
2018-08-24T19:57:34.496Z,64.73
2018-08-24T20:00:03.275Z,64.52
2018-08-24T20:02:31.774Z,64.36
2018-08-24T20:05:00.083Z,64.27
2018-08-24T20:07:34.626Z,64.91
2018-08-24T20:10:04.856Z,64.71
2018-08-24T20:12:33.385Z,64.82
2018-08-24T20:15:07.169Z,64.59
2018-08-24T20:17:35.759Z,64.45
2018-08-24T20:20:04.072Z,64.35
2018-08-24T20:22:32.338Z,64.60
2018-08-24T20:25:00.914Z,64.19
2018-08-24T20:27:29.240Z,63.81
2018-08-24T20:29:57.466Z,64.37
2018-08-24T20:32:26.013Z,65.07
2018-08-24T20:34:54.811Z,64.82
2018-08-24T20:37:23.368Z,64.90
2018-08-24T20:39:51.658Z,65.47
2018-08-24T20:42:20.236Z,64.98
2018-08-24T20:44:49.213Z,65.16
2018-08-24T20:47:17.782Z,65.24
2018-08-24T20:49:46.045Z,64.83
2018-08-24T20:52:14.626Z,65.84
2018-08-24T20:54:43.412Z,65.61
2018-08-24T20:57:11.653Z,65.83
2018-08-24T20:59:40.479Z,66.72
2018-08-24T21:02:09.944Z,65.79
2018-08-24T21:04:39.281Z,66.55
2018-08-24T21:07:08.132Z,66.54
2018-08-24T21:09:36.730Z,66.03
2018-08-24T21:12:05.524Z,66.06
2018-08-24T21:14:34.052Z,66.34
2018-08-24T21:17:02.453Z,66.61
2018-08-24T21:19:30.996Z,66.92
2018-08-24T21:21:59.222Z,67.66
2018-08-24T21:24:27.870Z,67.59
2018-08-24T21:26:56.509Z,67.90
2018-08-24T21:29:25.393Z,68.99
2018-08-24T21:31:54.186Z,68.32
2018-08-24T21:34:22.778Z,68.02
2018-08-24T21:36:51.378Z,68.74
2018-08-24T21:39:19.984Z,68.94
2018-08-24T21:41:48.455Z,68.70
2018-08-24T21:44:17.308Z,68.89
2018-08-24T21:46:45.483Z,69.48
2018-08-24T21:49:14.296Z,69.71
2018-08-24T21:51:42.786Z,69.70
2018-08-24T21:54:11.567Z,70.23
2018-08-24T21:56:39.756Z,70.37
2018-08-24T21:59:08.553Z,70.45
2018-08-24T22:01:37.057Z,69.90
2018-08-24T22:04:05.324Z,70.39
2018-08-24T22:06:33.792Z,70.15
2018-08-24T22:09:02.457Z,69.72
2018-08-24T22:11:31.278Z,70.07
2018-08-24T22:13:59.758Z,69.26
2018-08-24T22:16:29.509Z,70.59
2018-08-24T22:18:57.948Z,70.24
2018-08-24T22:21:26.582Z,71.13
2018-08-24T22:23:54.801Z,72.12
2018-08-24T22:26:23.532Z,72.80
2018-08-24T22:28:52.790Z,73.60
2018-08-24T22:31:21.695Z,74.42
2018-08-24T22:33:50.454Z,74.91
2018-08-24T22:36:18.720Z,75.22
2018-08-24T22:38:46.995Z,75.79
2018-08-24T22:41:16.274Z,75.96
2018-08-24T22:43:44.950Z,76.18
2018-08-24T22:46:13.427Z,76.47
2018-08-24T22:48:42.052Z,75.18
2018-08-24T22:51:11.223Z,75.70
2018-08-24T22:53:40.271Z,74.07
2018-08-24T22:56:09.235Z,73.08
2018-08-24T22:58:37.421Z,73.37
2018-08-24T23:01:06.421Z,72.90
2018-08-24T23:03:34.676Z,73.19
2018-08-24T23:06:03.277Z,72.27
2018-08-24T23:08:31.556Z,70.92
2018-08-24T23:11:00.230Z,70.59
2018-08-24T23:13:28.936Z,70.99
2018-08-24T23:15:57.533Z,71.42
2018-08-24T23:18:26.103Z,70.99
2018-08-24T23:20:54.648Z,71.42
2018-08-24T23:23:23.205Z,71.49
2018-08-24T23:25:51.989Z,72.43
2018-08-24T23:28:20.849Z,73.02
2018-08-24T23:30:49.397Z,73.36
2018-08-24T23:33:17.856Z,72.75
2018-08-24T23:35:46.210Z,72.72
2018-08-24T23:38:14.778Z,72.88
2018-08-24T23:40:43.749Z,73.36
2018-08-24T23:43:12.379Z,72.88
2018-08-24T23:45:41.010Z,72.69
2018-08-24T23:48:09.904Z,73.25
2018-08-24T23:50:38.441Z,72.94
2018-08-24T23:53:06.739Z,72.50
2018-08-24T23:55:35.247Z,72.70
2018-08-24T23:58:03.868Z,72.61
